Time;durP1;ratioP1;P1;durP2;ratioP2;P2;SDS_P1;SDS_P2;PMS_P1;PMS_P2;Temp;Humidity;BMP_temperature;BMP_pressure;BME280_temperature;BME280_humidity;BME280_pressure;Samples;Min_cycle;Max_cycle;Signal;HPM_P1;HPM_P2
2023/09/10 00:00:30;;;;;;;0.20;0.20;;;;;;;;;;4911672;29;20060;-74
2023/09/10 00:02:58;;;;;;;0.00;0.00;;;;;;;;;;4912177;29;20562;-74
2023/09/10 00:05:25;;;;;;;0.10;0.10;;;;;;;;;;4911898;29;20459;-73
2023/09/10 00:07:53;;;;;;;0.65;0.47;;;;;;;;;;4898842;29;20534;-74
2023/09/10 00:10:21;;;;;;;0.52;0.52;;;;;;;;;;4893001;29;20067;-73
2023/09/10 00:12:48;;;;;;;0.10;0.10;;;;;;;;;;4893101;29;20139;-74
2023/09/10 00:15:16;;;;;;;0.00;0.00;;;;;;;;;;4892364;29;20388;-74
2023/09/10 00:17:43;;;;;;;0.15;0.15;;;;;;;;;;4892665;29;20048;-73
2023/09/10 00:20:11;;;;;;;0.00;0.00;;;;;;;;;;4892918;29;20052;-74
2023/09/10 00:22:39;;;;;;;0.00;0.00;;;;;;;;;;4892902;29;20419;-74
2023/09/10 00:25:07;;;;;;;0.00;0.00;;;;;;;;;;4892732;29;20495;-74
2023/09/10 00:27:35;;;;;;;0.00;0.00;;;;;;;;;;4892822;29;20037;-74
2023/09/10 00:30:03;;;;;;;0.00;0.00;;;;;;;;;;4876041;29;20083;-74
2023/09/10 00:32:31;;;;;;;0.00;0.00;;;;;;;;;;4892013;29;20052;-73
2023/09/10 00:34:58;;;;;;;0.10;0.10;;;;;;;;;;4892307;29;20131;-73
2023/09/10 00:37:26;;;;;;;0.00;0.00;;;;;;;;;;4873693;29;20563;-74
2023/09/10 00:39:53;;;;;;;0.00;0.00;;;;;;;;;;4886744;29;20571;-73
2023/09/10 00:42:22;;;;;;;0.15;0.10;;;;;;;;;;4876303;29;20515;-73
2023/09/10 00:44:50;;;;;;;0.10;0.10;;;;;;;;;;4875179;29;20052;-71
2023/09/10 00:47:18;;;;;;;0.68;0.57;;;;;;;;;;4891881;29;20049;-74
2023/09/10 00:49:46;;;;;;;2.72;1.65;;;;;;;;;;4876066;29;20131;-74
2023/09/10 00:52:13;;;;;;;0.03;0.03;;;;;;;;;;4890508;29;20062;-71
2023/09/10 00:54:41;;;;;;;0.10;0.10;;;;;;;;;;4891673;29;20510;-73
2023/09/10 00:57:08;;;;;;;0.03;0.03;;;;;;;;;;4875393;29;20057;-73
2023/09/10 00:59:36;;;;;;;0.00;0.00;;;;;;;;;;4892325;29;20134;-73
2023/09/10 01:02:04;;;;;;;0.00;0.00;;;;;;;;;;4890981;29;20487;-74
2023/09/10 01:04:31;;;;;;;0.68;0.68;;;;;;;;;;4891863;29;20057;-72
2023/09/10 01:06:59;;;;;;;0.57;0.57;;;;;;;;;;4891746;29;20052;-72
2023/09/10 01:09:27;;;;;;;0.65;0.45;;;;;;;;;;4890507;29;20049;-72
2023/09/10 01:12:01;;;;;;;0.43;0.43;;;;;;;;;;4891673;29;20055;-71
2023/09/10 01:14:32;;;;;;;0.45;0.45;;;;;;;;;;4897333;23;20514;-84
2023/09/10 01:17:03;;;;;;;0.00;0.00;;;;;;;;;;4893099;29;20096;-84
2023/09/10 01:19:49;;;;;;;0.00;0.00;;;;;;;;;;4903035;29;20057;-83
2023/09/10 01:22:17;;;;;;;0.00;0.00;;;;;;;;;;4878893;29;20094;-84
2023/09/10 01:24:51;;;;;;;0.20;0.20;;;;;;;;;;4872671;29;20063;-84
2023/09/10 01:27:19;;;;;;;0.10;0.10;;;;;;;;;;4874134;29;20055;-84
2023/09/10 01:29:46;;;;;;;0.00;0.00;;;;;;;;;;4869787;29;20133;-85
2023/09/10 01:32:32;;;;;;;0.00;0.00;;;;;;;;;;4864173;29;20048;-84
2023/09/10 01:35:10;;;;;;;0.00;0.00;;;;;;;;;;4868687;29;20061;-84
2023/09/10 01:37:41;;;;;;;0.00;0.00;;;;;;;;;;4867996;29;20566;-84
2023/09/10 01:40:09;;;;;;;0.00;0.00;;;;;;;;;;4870026;29;20080;-84
2023/09/10 01:42:38;;;;;;;0.00;0.00;;;;;;;;;;4874359;29;20476;-84
2023/09/10 01:45:06;;;;;;;0.20;0.20;;;;;;;;;;4872503;29;20049;-84
2023/09/10 01:47:33;;;;;;;0.40;0.30;;;;;;;;;;4868064;29;20472;-84
2023/09/10 01:50:01;;;;;;;0.13;0.05;;;;;;;;;;4888904;29;20065;-84
2023/09/10 01:52:29;;;;;;;0.00;0.00;;;;;;;;;;4884760;23;20690;-75
2023/09/10 01:54:56;;;;;;;0.13;0.13;;;;;;;;;;4882028;29;20145;-75
2023/09/10 01:57:24;;;;;;;0.40;0.40;;;;;;;;;;4884935;29;20120;-75
2023/09/10 01:59:51;;;;;;;0.77;0.50;;;;;;;;;;4872462;29;20052;-74
2023/09/10 02:02:19;;;;;;;0.00;0.00;;;;;;;;;;4851675;29;20109;-74
2023/09/10 02:04:46;;;;;;;0.65;0.65;;;;;;;;;;4872271;29;20068;-74
2023/09/10 02:07:14;;;;;;;10.00;9.50;;;;;;;;;;4855305;29;20400;-74
2023/09/10 02:09:41;;;;;;;1.40;1.30;;;;;;;;;;4858224;29;20508;-74
2023/09/10 02:12:09;;;;;;;0.30;0.30;;;;;;;;;;4854305;29;20056;-74
2023/09/10 02:14:36;;;;;;;0.55;0.55;;;;;;;;;;4871796;29;20054;-74
2023/09/10 02:17:07;;;;;;;2.03;1.92;;;;;;;;;;4852918;29;20135;-74
2023/09/10 02:19:35;;;;;;;2.63;0.25;;;;;;;;;;4855395;29;20053;-73
2023/09/10 02:22:03;;;;;;;0.10;0.10;;;;;;;;;;4870260;29;20060;-74
2023/09/10 02:24:31;;;;;;;0.45;0.30;;;;;;;;;;4854731;29;20065;-74
2023/09/10 02:26:58;;;;;;;0.32;0.32;;;;;;;;;;4855818;29;20069;-74
2023/09/10 02:29:26;;;;;;;0.28;0.28;;;;;;;;;;4871172;29;20053;-74
2023/09/10 02:31:54;;;;;;;0.35;0.32;;;;;;;;;;4871179;29;20124;-74
2023/09/10 02:34:21;;;;;;;0.05;0.05;;;;;;;;;;4868942;29;20049;-74
2023/09/10 02:36:49;;;;;;;0.20;0.20;;;;;;;;;;4883232;29;20571;-74
2023/09/10 02:39:16;;;;;;;1.85;1.10;;;;;;;;;;4886432;29;20068;-75
2023/09/10 02:41:44;;;;;;;9.43;8.93;;;;;;;;;;4857334;29;20113;-74
2023/09/10 02:44:12;;;;;;;0.55;0.55;;;;;;;;;;4852531;29;20045;-75
2023/09/10 02:46:39;;;;;;;0.00;0.00;;;;;;;;;;4870025;29;20143;-75
2023/09/10 02:49:07;;;;;;;0.00;0.00;;;;;;;;;;4855359;29;20045;-75
2023/09/10 02:51:35;;;;;;;0.00;0.00;;;;;;;;;;4869530;29;20480;-75
2023/09/10 02:54:02;;;;;;;0.00;0.00;;;;;;;;;;4872395;29;20431;-75
2023/09/10 02:56:30;;;;;;;0.08;0.08;;;;;;;;;;4872416;29;20401;-75
2023/09/10 02:58:57;;;;;;;0.00;0.00;;;;;;;;;;4870567;29;20555;-74
2023/09/10 03:01:25;;;;;;;0.93;0.57;;;;;;;;;;4860916;29;20053;-74
2023/09/10 03:03:52;;;;;;;0.00;0.00;;;;;;;;;;4887496;29;20512;-75
2023/09/10 03:06:20;;;;;;;0.00;0.00;;;;;;;;;;4858110;29;20064;-75
2023/09/10 03:08:48;;;;;;;0.35;0.30;;;;;;;;;;4873055;29;20045;-75
2023/09/10 03:11:16;;;;;;;0.28;0.28;;;;;;;;;;4856288;29;20076;-74
2023/09/10 03:13:43;;;;;;;1.75;1.65;;;;;;;;;;4875067;29;20056;-75
2023/09/10 03:16:11;;;;;;;2.35;2.00;;;;;;;;;;4857452;29;20136;-74
2023/09/10 03:18:38;;;;;;;0.38;0.38;;;;;;;;;;4857223;29;20656;-74
2023/09/10 03:21:06;;;;;;;0.00;0.00;;;;;;;;;;4858385;29;20123;-75
2023/09/10 03:23:33;;;;;;;0.22;0.13;;;;;;;;;;4858918;29;20139;-75
2023/09/10 03:26:01;;;;;;;0.10;0.10;;;;;;;;;;4859845;29;20475;-75
2023/09/10 03:28:29;;;;;;;48.35;44.85;;;;;;;;;;4857404;29;20440;-74
2023/09/10 03:30:57;;;;;;;0.17;0.10;;;;;;;;;;4859683;29;20125;-75
2023/09/10 03:33:25;;;;;;;0.57;0.40;;;;;;;;;;4874504;29;20048;-74
2023/09/10 03:35:53;;;;;;;5.95;5.63;;;;;;;;;;4855072;29;20058;-75
2023/09/10 03:38:20;;;;;;;0.00;0.00;;;;;;;;;;4873578;29;20562;-74
2023/09/10 03:40:48;;;;;;;0.30;0.30;;;;;;;;;;4853308;29;20064;-74
2023/09/10 03:43:16;;;;;;;0.43;0.43;;;;;;;;;;4853868;29;20060;-75
2023/09/10 03:45:44;;;;;;;0.52;0.20;;;;;;;;;;4857574;29;20055;-74
2023/09/10 03:48:12;;;;;;;0.00;0.00;;;;;;;;;;4874307;29;20052;-74
2023/09/10 03:50:40;;;;;;;3.58;3.42;;;;;;;;;;4869957;29;20055;-74
2023/09/10 03:53:07;;;;;;;0.38;0.38;;;;;;;;;;4857388;29;20059;-74
2023/09/10 03:55:35;;;;;;;0.08;0.08;;;;;;;;;;4853424;29;20148;-75
2023/09/10 03:58:03;;;;;;;0.10;0.10;;;;;;;;;;4874291;29;20057;-75
2023/09/10 04:00:32;;;;;;;0.17;0.17;;;;;;;;;;4874518;29;20052;-75
2023/09/10 04:03:00;;;;;;;0.10;0.10;;;;;;;;;;4868850;29;20408;-75
2023/09/10 04:05:28;;;;;;;0.25;0.25;;;;;;;;;;4857390;29;20203;-75
2023/09/10 04:07:55;;;;;;;0.00;0.00;;;;;;;;;;4855829;29;20044;-73
2023/09/10 04:10:24;;;;;;;0.00;0.00;;;;;;;;;;4875340;29;20522;-73
2023/09/10 04:12:52;;;;;;;0.28;0.28;;;;;;;;;;4874185;29;20057;-73
2023/09/10 04:15:19;;;;;;;0.47;0.47;;;;;;;;;;4856584;29;20067;-73
2023/09/10 04:17:47;;;;;;;0.30;0.30;;;;;;;;;;4872481;29;20057;-74
2023/09/10 04:20:15;;;;;;;0.00;0.00;;;;;;;;;;4855994;29;20271;-75
2023/09/10 04:22:42;;;;;;;0.57;0.10;;;;;;;;;;4874139;29;20120;-75
2023/09/10 04:25:10;;;;;;;0.00;0.00;;;;;;;;;;4856179;29;20068;-74
2023/09/10 04:27:37;;;;;;;0.35;0.35;;;;;;;;;;4873017;29;20051;-75
2023/09/10 04:30:05;;;;;;;0.10;0.10;;;;;;;;;;4857823;29;20395;-75
2023/09/10 04:32:33;;;;;;;0.47;0.47;;;;;;;;;;4880330;29;20061;-75
2023/09/10 04:35:00;;;;;;;0.40;0.40;;;;;;;;;;4855611;29;20165;-75
2023/09/10 04:37:28;;;;;;;0.55;0.55;;;;;;;;;;4872572;29;20512;-75
2023/09/10 04:39:55;;;;;;;0.00;0.00;;;;;;;;;;4856490;29;20500;-75
2023/09/10 04:42:23;;;;;;;0.00;0.00;;;;;;;;;;4854909;29;20136;-75
2023/09/10 04:44:50;;;;;;;2.70;0.88;;;;;;;;;;4873661;29;20061;-75
2023/09/10 04:47:18;;;;;;;0.03;0.03;;;;;;;;;;4855745;29;20064;-75
2023/09/10 04:49:45;;;;;;;2.65;2.55;;;;;;;;;;4872340;29;20085;-75
2023/09/10 04:52:15;;;;;;;1.63;1.60;;;;;;;;;;4856897;29;20057;-75
2023/09/10 04:54:43;;;;;;;1.35;0.85;;;;;;;;;;4869876;29;20072;-75
2023/09/10 04:57:10;;;;;;;0.22;0.22;;;;;;;;;;4851071;29;20053;-75
2023/09/10 04:59:38;;;;;;;17.90;16.98;;;;;;;;;;4868725;29;20959;-75
2023/09/10 05:02:05;;;;;;;0.40;0.40;;;;;;;;;;4870959;29;20053;-74
2023/09/10 05:04:33;;;;;;;0.10;0.10;;;;;;;;;;4872795;29;20523;-75
2023/09/10 05:07:00;;;;;;;0.40;0.40;;;;;;;;;;4866320;29;20052;-75
2023/09/10 05:09:28;;;;;;;0.35;0.35;;;;;;;;;;4873926;29;20507;-75
2023/09/10 05:11:56;;;;;;;0.00;0.00;;;;;;;;;;4853940;29;20068;-75
2023/09/10 05:14:25;;;;;;;0.10;0.10;;;;;;;;;;4857672;29;20041;-75
2023/09/10 05:16:53;;;;;;;0.00;0.00;;;;;;;;;;4857346;29;20041;-75
2023/09/10 05:19:26;;;;;;;0.00;0.00;;;;;;;;;;4856387;29;20419;-74
2023/09/10 05:21:53;;;;;;;0.00;0.00;;;;;;;;;;4868688;29;20040;-75
2023/09/10 05:24:21;;;;;;;0.20;0.20;;;;;;;;;;4873536;29;20519;-74
2023/09/10 05:26:49;;;;;;;0.22;0.15;;;;;;;;;;4855641;29;20157;-74
2023/09/10 05:29:16;;;;;;;0.15;0.15;;;;;;;;;;4873334;29;20048;-75
2023/09/10 05:31:44;;;;;;;0.00;0.00;;;;;;;;;;4856470;29;20054;-75
2023/09/10 05:34:13;;;;;;;0.57;0.57;;;;;;;;;;4856233;29;20045;-74
2023/09/10 05:36:40;;;;;;;0.05;0.05;;;;;;;;;;4865100;29;20052;-75
2023/09/10 05:39:08;;;;;;;0.17;0.17;;;;;;;;;;4876732;29;20053;-74
2023/09/10 05:41:36;;;;;;;0.30;0.30;;;;;;;;;;4866587;29;20045;-75
2023/09/10 05:44:04;;;;;;;2.72;0.52;;;;;;;;;;4869490;29;20108;-75
2023/09/10 05:46:33;;;;;;;0.10;0.10;;;;;;;;;;4870389;29;20053;-75
2023/09/10 05:49:00;;;;;;;0.55;0.55;;;;;;;;;;4865404;29;20052;-75
2023/09/10 05:51:28;;;;;;;0.00;0.00;;;;;;;;;;4876502;29;20144;-75
2023/09/10 05:53:55;;;;;;;0.57;0.57;;;;;;;;;;4871639;29;20049;-74
2023/09/10 05:56:24;;;;;;;0.08;0.08;;;;;;;;;;4871905;29;20548;-75
2023/09/10 05:58:52;;;;;;;0.00;0.00;;;;;;;;;;4869352;29;20061;-75
2023/09/10 06:01:20;;;;;;;0.00;0.00;;;;;;;;;;4852863;29;20059;-75
2023/09/10 06:03:47;;;;;;;2.28;2.17;;;;;;;;;;4853374;29;20101;-75
2023/09/10 06:06:15;;;;;;;0.38;0.38;;;;;;;;;;4869818;29;20053;-75
2023/09/10 06:08:43;;;;;;;0.22;0.22;;;;;;;;;;4853540;29;20038;-74
2023/09/10 06:11:10;;;;;;;0.00;0.00;;;;;;;;;;4849078;29;20053;-74
2023/09/10 06:13:38;;;;;;;0.32;0.32;;;;;;;;;;4854081;29;20080;-74
2023/09/10 06:16:05;;;;;;;0.00;0.00;;;;;;;;;;4852998;29;20511;-74
2023/09/10 06:18:33;;;;;;;5.88;5.57;;;;;;;;;;4877375;29;20041;-75
2023/09/10 06:21:00;;;;;;;0.93;0.93;;;;;;;;;;4877490;29;20053;-74
2023/09/10 06:23:28;;;;;;;0.43;0.43;;;;;;;;;;4869873;29;20107;-74
2023/09/10 06:25:55;;;;;;;0.68;0.45;;;;;;;;;;4883456;29;20051;-75
2023/09/10 06:28:24;;;;;;;14.85;14.10;;;;;;;;;;4866725;29;20510;-75
2023/09/10 06:30:52;;;;;;;0.63;0.63;;;;;;;;;;4879992;29;20088;-76
2023/09/10 06:33:19;;;;;;;0.20;0.20;;;;;;;;;;4868800;29;20045;-74
2023/09/10 06:35:47;;;;;;;0.05;0.05;;;;;;;;;;4853766;29;20068;-75
2023/09/10 06:38:15;;;;;;;0.05;0.05;;;;;;;;;;4853001;29;20045;-76
2023/09/10 06:40:42;;;;;;;0.35;0.35;;;;;;;;;;4868154;29;20677;-76
2023/09/10 06:43:10;;;;;;;0.10;0.10;;;;;;;;;;4855660;29;20060;-77
2023/09/10 06:45:51;;;;;;;0.00;0.00;;;;;;;;;;4858592;29;20049;-76
2023/09/10 06:48:19;;;;;;;0.20;0.20;;;;;;;;;;4874274;29;20072;-76
2023/09/10 06:50:46;;;;;;;0.25;0.25;;;;;;;;;;4872328;29;20124;-76
2023/09/10 06:53:14;;;;;;;0.05;0.05;;;;;;;;;;4858039;29;20045;-76
2023/09/10 06:55:42;;;;;;;0.00;0.00;;;;;;;;;;4874773;29;20049;-76
2023/09/10 06:58:14;;;;;;;0.57;0.57;;;;;;;;;;4870858;29;20053;-75
2023/09/10 07:00:41;;;;;;;0.13;0.13;;;;;;;;;;4868209;29;20104;-76
2023/09/10 07:03:10;;;;;;;0.00;0.00;;;;;;;;;;4874965;29;20124;-75
2023/09/10 07:05:40;;;;;;;0.00;0.00;;;;;;;;;;4874279;29;20057;-75
2023/09/10 07:08:09;;;;;;;0.10;0.10;;;;;;;;;;4872687;29;20048;-75
2023/09/10 07:10:36;;;;;;;0.03;0.03;;;;;;;;;;4871268;29;20047;-75
2023/09/10 07:13:07;;;;;;;0.00;0.00;;;;;;;;;;4883022;29;20552;-76
2023/09/10 07:15:36;;;;;;;0.00;0.00;;;;;;;;;;4872769;29;20575;-75
2023/09/10 07:18:04;;;;;;;0.10;0.10;;;;;;;;;;4868915;29;20333;-76
2023/09/10 07:20:32;;;;;;;0.28;0.10;;;;;;;;;;4871436;29;20064;-77
2023/09/10 07:22:59;;;;;;;0.00;0.00;;;;;;;;;;4872573;29;20504;-76
2023/09/10 07:25:26;;;;;;;0.00;0.00;;;;;;;;;;4873151;29;20075;-76
2023/09/10 07:27:56;;;;;;;0.00;0.00;;;;;;;;;;4869823;29;20055;-76
2023/09/10 07:30:23;;;;;;;0.30;0.30;;;;;;;;;;4872716;29;20083;-76
2023/09/10 07:32:51;;;;;;;0.10;0.10;;;;;;;;;;4899378;23;20052;-79
2023/09/10 07:35:18;;;;;;;0.10;0.10;;;;;;;;;;4874675;29;20135;-76
2023/09/10 07:37:46;;;;;;;1.02;0.88;;;;;;;;;;4890871;29;20180;-79
2023/09/10 07:40:15;;;;;;;0.60;0.60;;;;;;;;;;4870589;29;20104;-78
2023/09/10 07:42:42;;;;;;;0.30;0.30;;;;;;;;;;4883955;29;20062;-77
2023/09/10 07:45:14;;;;;;;0.20;0.20;;;;;;;;;;4884673;29;20135;-81
2023/09/10 07:47:41;;;;;;;0.70;0.70;;;;;;;;;;4889339;29;20572;-80
2023/09/10 07:50:09;;;;;;;0.45;0.45;;;;;;;;;;4883677;29;20044;-78
2023/09/10 07:52:37;;;;;;;4.35;3.95;;;;;;;;;;4883927;29;20045;-79
2023/09/10 07:55:04;;;;;;;6.00;5.60;;;;;;;;;;4885921;29;20084;-78
2023/09/10 07:57:32;;;;;;;0.32;0.32;;;;;;;;;;4884683;29;20053;-78
2023/09/10 07:59:59;;;;;;;0.10;0.10;;;;;;;;;;4890791;29;20048;-78
2023/09/10 08:02:28;;;;;;;0.17;0.17;;;;;;;;;;4872646;29;20049;-79
2023/09/10 08:04:58;;;;;;;0.20;0.20;;;;;;;;;;4870284;29;20040;-80
2023/09/10 08:07:25;;;;;;;0.45;0.45;;;;;;;;;;4882532;29;20051;-77
2023/09/10 08:09:52;;;;;;;0.00;0.00;;;;;;;;;;4889364;29;20547;-77
2023/09/10 08:12:20;;;;;;;0.25;0.25;;;;;;;;;;4888078;29;20495;-77
2023/09/10 08:14:47;;;;;;;0.45;0.40;;;;;;;;;;4884356;29;20052;-78
2023/09/10 08:17:15;;;;;;;0.00;0.00;;;;;;;;;;4880695;29;20057;-77
2023/09/10 08:19:42;;;;;;;0.30;0.30;;;;;;;;;;4885453;29;20507;-77
2023/09/10 08:22:10;;;;;;;0.20;0.20;;;;;;;;;;4883137;29;20072;-76
2023/09/10 08:24:37;;;;;;;0.20;0.20;;;;;;;;;;4892017;29;20376;-76
2023/09/10 08:27:04;;;;;;;1.00;0.90;;;;;;;;;;4891152;29;20073;-78
2023/09/10 08:29:32;;;;;;;0.05;0.05;;;;;;;;;;4892141;29;20053;-76
2023/09/10 08:32:01;;;;;;;0.25;0.25;;;;;;;;;;4890266;29;20127;-76
2023/09/10 08:34:28;;;;;;;0.52;0.45;;;;;;;;;;4892094;29;20515;-76
2023/09/10 08:36:56;;;;;;;0.43;0.43;;;;;;;;;;4891634;29;20076;-79
2023/09/10 08:39:23;;;;;;;0.00;0.00;;;;;;;;;;4890656;29;20522;-79
2023/09/10 08:42:06;;;;;;;0.00;0.00;;;;;;;;;;4892728;29;20136;-76
2023/09/10 08:44:34;;;;;;;0.10;0.10;;;;;;;;;;4888024;29;20486;-77
2023/09/10 08:47:01;;;;;;;0.70;0.38;;;;;;;;;;4872863;29;20052;-78
2023/09/10 08:49:34;;;;;;;0.00;0.00;;;;;;;;;;4891398;29;20044;-78
2023/09/10 08:52:02;;;;;;;0.00;0.00;;;;;;;;;;4890691;29;20252;-79
2023/09/10 08:54:30;;;;;;;0.00;0.00;;;;;;;;;;4891790;29;20047;-78
2023/09/10 08:56:57;;;;;;;0.10;0.10;;;;;;;;;;4892207;29;20048;-76
2023/09/10 08:59:25;;;;;;;0.00;0.00;;;;;;;;;;4891679;29;20159;-76
2023/09/10 09:01:52;;;;;;;0.00;0.00;;;;;;;;;;4890047;29;20056;-80
2023/09/10 09:04:21;;;;;;;0.10;0.10;;;;;;;;;;4891252;29;20040;-78
2023/09/10 09:06:51;;;;;;;0.00;0.00;;;;;;;;;;4889900;29;20451;-76
2023/09/10 09:09:20;;;;;;;0.00;0.00;;;;;;;;;;4886214;29;20041;-76
2023/09/10 09:11:49;;;;;;;0.00;0.00;;;;;;;;;;4886270;29;20056;-76
2023/09/10 09:14:16;;;;;;;0.38;0.38;;;;;;;;;;4889212;29;20409;-76
2023/09/10 09:16:47;;;;;;;0.00;0.00;;;;;;;;;;4891043;29;20068;-78
2023/09/10 09:19:17;;;;;;;0.10;0.10;;;;;;;;;;4887772;29;20157;-77
2023/09/10 09:21:47;;;;;;;0.00;0.00;;;;;;;;;;4889537;29;20052;-77
2023/09/10 09:24:15;;;;;;;0.00;0.00;;;;;;;;;;4875885;29;20056;-77
2023/09/10 09:26:43;;;;;;;0.10;0.10;;;;;;;;;;4890914;29;20075;-77
2023/09/10 09:29:11;;;;;;;12.15;11.32;;;;;;;;;;4892090;29;20109;-79
2023/09/10 09:31:38;;;;;;;0.32;0.32;;;;;;;;;;4890968;29;20502;-79
2023/09/10 09:34:06;;;;;;;0.03;0.03;;;;;;;;;;4873164;29;20422;-77
2023/09/10 09:36:36;;;;;;;0.20;0.20;;;;;;;;;;4871936;29;20043;-76
2023/09/10 09:39:07;;;;;;;0.10;0.10;;;;;;;;;;4890570;29;20071;-77
2023/09/10 09:41:35;;;;;;;0.10;0.10;;;;;;;;;;4887710;29;20131;-77
2023/09/10 09:44:03;;;;;;;0.40;0.40;;;;;;;;;;4889522;29;20105;-78
2023/09/10 09:46:32;;;;;;;0.10;0.10;;;;;;;;;;4891485;29;20045;-76
2023/09/10 09:49:00;;;;;;;0.00;0.00;;;;;;;;;;4885229;29;20048;-78
2023/09/10 09:51:28;;;;;;;0.00;0.00;;;;;;;;;;4888088;29;20053;-75
2023/09/10 09:53:56;;;;;;;0.50;0.43;;;;;;;;;;4890066;29;20140;-75
2023/09/10 09:56:23;;;;;;;0.47;0.47;;;;;;;;;;4890411;29;20040;-75
2023/09/10 09:58:51;;;;;;;0.80;0.38;;;;;;;;;;4889957;29;20056;-77
2023/09/10 10:01:21;;;;;;;0.00;0.00;;;;;;;;;;4889950;29;20063;-78
2023/09/10 10:03:49;;;;;;;0.00;0.00;;;;;;;;;;4890348;29;20060;-77
2023/09/10 10:06:17;;;;;;;0.05;0.05;;;;;;;;;;4888308;29;20473;-77
2023/09/10 10:08:51;;;;;;;0.05;0.05;;;;;;;;;;4888444;29;20134;-76
2023/09/10 10:11:29;;;;;;;0.10;0.10;;;;;;;;;;4889403;29;20044;-77
2023/09/10 10:14:00;;;;;;;0.00;0.00;;;;;;;;;;4890482;29;20061;-77
2023/09/10 10:16:29;;;;;;;0.55;0.55;;;;;;;;;;4893844;29;20120;-76
2023/09/10 10:18:56;;;;;;;0.00;0.00;;;;;;;;;;4894432;29;20082;-77
2023/09/10 10:21:24;;;;;;;0.00;0.00;;;;;;;;;;4892720;29;20104;-77
2023/09/10 10:23:56;;;;;;;0.22;0.22;;;;;;;;;;4891920;29;20109;-77
2023/09/10 10:26:24;;;;;;;0.10;0.10;;;;;;;;;;4892575;29;20097;-77
2023/09/10 10:28:53;;;;;;;0.00;0.00;;;;;;;;;;4894093;29;20423;-76
2023/09/10 10:31:25;;;;;;;0.10;0.10;;;;;;;;;;4893837;29;20134;-77
2023/09/10 10:34:02;;;;;;;0.08;0.08;;;;;;;;;;4893391;29;20044;-78
2023/09/10 10:36:33;;;;;;;0.00;0.00;;;;;;;;;;4892596;29;20040;-76
2023/09/10 10:39:04;;;;;;;0.15;0.15;;;;;;;;;;4892257;29;20124;-77
2023/09/10 10:41:33;;;;;;;0.00;0.00;;;;;;;;;;4894148;29;20407;-77
2023/09/10 10:44:05;;;;;;;0.10;0.10;;;;;;;;;;4891947;29;20052;-79
2023/09/10 10:46:34;;;;;;;0.17;0.10;;;;;;;;;;4888142;29;20108;-76
2023/09/10 10:49:03;;;;;;;0.13;0.13;;;;;;;;;;4893442;29;20057;-78
2023/09/10 10:51:33;;;;;;;0.10;0.10;;;;;;;;;;4892730;29;20048;-78
2023/09/10 10:54:20;;;;;;;0.20;0.20;;;;;;;;;;4890478;29;20396;-79
2023/09/10 10:56:48;;;;;;;0.00;0.00;;;;;;;;;;4893718;29;20451;-80
2023/09/10 10:59:15;;;;;;;1.08;0.52;;;;;;;;;;4893183;29;20064;-76
2023/09/10 11:02:03;;;;;;;0.00;0.00;;;;;;;;;;4892795;29;20045;-77
2023/09/10 11:04:30;;;;;;;0.10;0.10;;;;;;;;;;4892928;29;20164;-77
2023/09/10 11:07:17;;;;;;;0.00;0.00;;;;;;;;;;4876122;29;20076;-79
2023/09/10 11:09:46;;;;;;;0.13;0.13;;;;;;;;;;4888375;29;20060;-77
2023/09/10 11:12:14;;;;;;;0.30;0.30;;;;;;;;;;4891524;29;20479;-77
2023/09/10 11:15:00;;;;;;;0.00;0.00;;;;;;;;;;4893211;29;20064;-78
2023/09/10 11:17:35;;;;;;;0.13;0.13;;;;;;;;;;4892584;29;20418;-77
2023/09/10 11:20:06;;;;;;;0.20;0.20;;;;;;;;;;4894673;29;20060;-80
2023/09/10 11:22:54;;;;;;;0.00;0.00;;;;;;;;;;4893791;29;20241;-77
2023/09/10 11:25:21;;;;;;;0.00;0.00;;;;;;;;;;4891787;29;20123;-76
2023/09/10 11:27:52;;;;;;;0.00;0.00;;;;;;;;;;4892534;29;20088;-78
2023/09/10 11:30:21;;;;;;;0.15;0.15;;;;;;;;;;4892870;29;20045;-76
2023/09/10 11:32:50;;;;;;;0.00;0.00;;;;;;;;;;4893010;29;20055;-77
2023/09/10 11:35:20;;;;;;;0.10;0.10;;;;;;;;;;4891955;29;20033;-77
2023/09/10 11:37:50;;;;;;;0.10;0.10;;;;;;;;;;4875635;29;20056;-78
2023/09/10 11:40:18;;;;;;;0.10;0.00;;;;;;;;;;4890502;29;20053;-77
2023/09/10 11:42:49;;;;;;;0.10;0.10;;;;;;;;;;4888076;29;20423;-78
2023/09/10 11:45:18;;;;;;;0.93;0.70;;;;;;;;;;4892989;29;20553;-77
2023/09/10 11:47:47;;;;;;;0.00;0.00;;;;;;;;;;4890372;29;20061;-77
2023/09/10 11:50:21;;;;;;;0.10;0.10;;;;;;;;;;4891654;29;20051;-80
2023/09/10 11:52:49;;;;;;;0.00;0.00;;;;;;;;;;4892399;29;20044;-78
2023/09/10 11:55:16;;;;;;;0.15;0.15;;;;;;;;;;4892732;29;20048;-80
2023/09/10 11:57:44;;;;;;;0.00;0.00;;;;;;;;;;4889822;29;20157;-79
2023/09/10 12:00:12;;;;;;;0.00;0.00;;;;;;;;;;4893629;29;20049;-77
2023/09/10 12:02:41;;;;;;;1.17;0.85;;;;;;;;;;4897939;29;20230;-76
2023/09/10 12:05:09;;;;;;;0.52;0.35;;;;;;;;;;4893273;29;20060;-77
2023/09/10 12:07:36;;;;;;;0.03;0.03;;;;;;;;;;4892018;29;20056;-79
2023/09/10 12:10:04;;;;;;;0.88;0.88;;;;;;;;;;4893085;29;20053;-78
2023/09/10 12:12:33;;;;;;;0.08;0.08;;;;;;;;;;4874776;29;20109;-76
2023/09/10 12:15:02;;;;;;;0.25;0.25;;;;;;;;;;4892843;29;20084;-79
2023/09/10 12:17:29;;;;;;;0.20;0.10;;;;;;;;;;4875396;29;20584;-79
2023/09/10 12:19:57;;;;;;;0.00;0.00;;;;;;;;;;4891298;29;20056;-77
2023/09/10 12:22:25;;;;;;;0.40;0.40;;;;;;;;;;4892660;29;20126;-76
2023/09/10 12:24:53;;;;;;;0.00;0.00;;;;;;;;;;4893426;29;20555;-76
2023/09/10 12:27:20;;;;;;;0.00;0.00;;;;;;;;;;4892576;29;20445;-76
2023/09/10 12:29:48;;;;;;;0.00;0.00;;;;;;;;;;4870690;29;20199;-79
2023/09/10 12:32:15;;;;;;;0.10;0.10;;;;;;;;;;4892347;29;20049;-77
2023/09/10 12:34:43;;;;;;;0.20;0.20;;;;;;;;;;4892620;29;20128;-78
2023/09/10 12:37:15;;;;;;;0.00;0.00;;;;;;;;;;4890241;29;20052;-78
2023/09/10 12:39:44;;;;;;;0.47;0.47;;;;;;;;;;4885079;29;20507;-77
2023/09/10 12:42:12;;;;;;;0.00;0.00;;;;;;;;;;4889015;29;20158;-77
2023/09/10 12:44:40;;;;;;;2.28;1.75;;;;;;;;;;4890710;29;20044;-77
2023/09/10 12:47:09;;;;;;;0.22;0.22;;;;;;;;;;4892281;29;20060;-80
2023/09/10 12:49:40;;;;;;;0.10;0.10;;;;;;;;;;4890792;29;20044;-79
2023/09/10 12:52:08;;;;;;;0.30;0.10;;;;;;;;;;4891657;29;20472;-76
2023/09/10 12:54:35;;;;;;;0.00;0.00;;;;;;;;;;4889758;29;20132;-79
2023/09/10 12:57:05;;;;;;;0.17;0.17;;;;;;;;;;4890576;29;20045;-79
2023/09/10 12:59:32;;;;;;;0.10;0.10;;;;;;;;;;4887940;29;20077;-77
2023/09/10 13:02:04;;;;;;;0.70;0.20;;;;;;;;;;4892388;29;20052;-78
2023/09/10 13:04:32;;;;;;;0.30;0.30;;;;;;;;;;4890532;29;20052;-77
2023/09/10 13:06:59;;;;;;;0.60;0.60;;;;;;;;;;4889071;29;20044;-77
2023/09/10 13:09:27;;;;;;;0.10;0.10;;;;;;;;;;4888841;29;20045;-77
2023/09/10 13:11:54;;;;;;;0.00;0.00;;;;;;;;;;4874156;29;20140;-77
2023/09/10 13:14:22;;;;;;;0.10;0.10;;;;;;;;;;4871727;29;20444;-77
2023/09/10 13:16:49;;;;;;;0.00;0.00;;;;;;;;;;4891045;29;20072;-77
2023/09/10 13:19:17;;;;;;;1.30;1.30;;;;;;;;;;4888014;29;20110;-77
2023/09/10 13:21:44;;;;;;;0.00;0.00;;;;;;;;;;4889407;29;20419;-77
2023/09/10 13:24:12;;;;;;;0.00;0.00;;;;;;;;;;4890002;29;20052;-77
2023/09/10 13:26:39;;;;;;;0.08;0.08;;;;;;;;;;4891714;29;20049;-79
2023/09/10 13:29:07;;;;;;;0.00;0.00;;;;;;;;;;4890314;29;20080;-77
2023/09/10 13:31:34;;;;;;;0.05;0.00;;;;;;;;;;4891463;29;20075;-78
2023/09/10 13:34:02;;;;;;;0.00;0.00;;;;;;;;;;4888946;29;20076;-78
2023/09/10 13:36:29;;;;;;;0.15;0.15;;;;;;;;;;4891127;29;20067;-77
2023/09/10 13:38:57;;;;;;;0.00;0.00;;;;;;;;;;4891107;29;20059;-78
2023/09/10 13:41:24;;;;;;;0.00;0.00;;;;;;;;;;4891108;29;20174;-77
2023/09/10 13:43:52;;;;;;;1.38;0.28;;;;;;;;;;4890857;29;20075;-78
2023/09/10 13:46:19;;;;;;;0.20;0.20;;;;;;;;;;4888424;29;20536;-78
2023/09/10 13:48:47;;;;;;;0.00;0.00;;;;;;;;;;4881381;29;20074;-77
2023/09/10 13:51:15;;;;;;;0.10;0.10;;;;;;;;;;4890164;29;20062;-79
2023/09/10 13:53:44;;;;;;;0.10;0.10;;;;;;;;;;4890749;29;20052;-80
2023/09/10 13:56:14;;;;;;;0.10;0.10;;;;;;;;;;4890886;29;20057;-78
2023/09/10 13:58:41;;;;;;;0.00;0.00;;;;;;;;;;4891229;29;20075;-77
2023/09/10 14:01:09;;;;;;;1.25;0.40;;;;;;;;;;4891836;29;20053;-77
2023/09/10 14:03:37;;;;;;;6.75;0.43;;;;;;;;;;4892156;29;20127;-76
2023/09/10 14:06:07;;;;;;;0.08;0.08;;;;;;;;;;4874792;29;20421;-77
2023/09/10 14:08:36;;;;;;;0.00;0.00;;;;;;;;;;4890464;29;20127;-79
2023/09/10 14:11:05;;;;;;;0.10;0.10;;;;;;;;;;4887045;29;20507;-77
2023/09/10 14:13:32;;;;;;;0.00;0.00;;;;;;;;;;4887029;29;20045;-79
2023/09/10 14:16:00;;;;;;;0.20;0.20;;;;;;;;;;4890980;29;20177;-77
2023/09/10 14:18:27;;;;;;;0.10;0.10;;;;;;;;;;4894965;29;20053;-77
2023/09/10 14:20:55;;;;;;;0.35;0.35;;;;;;;;;;4891685;29;20346;-80
2023/09/10 14:23:22;;;;;;;0.08;0.08;;;;;;;;;;4887874;29;20068;-78
2023/09/10 14:25:50;;;;;;;0.10;0.10;;;;;;;;;;4891430;29;20480;-77
2023/09/10 14:28:17;;;;;;;0.43;0.25;;;;;;;;;;4889299;29;20167;-79
2023/09/10 14:30:44;;;;;;;0.10;0.10;;;;;;;;;;4889546;29;20064;-78
2023/09/10 14:33:12;;;;;;;0.20;0.20;;;;;;;;;;4890062;29;20040;-77
2023/09/10 14:35:40;;;;;;;0.00;0.00;;;;;;;;;;4891404;29;20051;-77
2023/09/10 14:38:07;;;;;;;0.20;0.20;;;;;;;;;;4891625;29;20076;-77
2023/09/10 14:40:35;;;;;;;0.00;0.00;;;;;;;;;;4889197;29;20056;-78
2023/09/10 14:43:06;;;;;;;0.00;0.00;;;;;;;;;;4890291;29;20052;-77
2023/09/10 14:45:36;;;;;;;0.00;0.00;;;;;;;;;;4890023;29;20068;-79
2023/09/10 14:48:04;;;;;;;0.10;0.10;;;;;;;;;;4888531;29;20108;-77
2023/09/10 14:50:32;;;;;;;0.00;0.00;;;;;;;;;;4889845;29;20132;-77